< < Back
Terminal Aerodrome Forecast


Current Version              Previous Versions:   1  2  3  4  5  6  7  8  9  

Terminal Aerodrome Forecast

219
FTUS42 KMLB 241908 AAA
TAFMCO
TAF AMD
KMCO 241908Z 2419/2518 05012G21KT P6SM VCSH SCT040 BKN120
     FM242100 05015G22KT P6SM VCTS SCT045CB SCT070 BKN250=

Latest METAR

230
SAUS70 KWBC 250400 RRF
MTRMCO
METAR KMCO 250353Z 03009KT 10SM FEW029 FEW040 BKN250 27/24 A3009 RMK AO2
SLP187 T02670239


USA.gov is the U.S. government's official web portal to all federal, state and local government web resources and services.